Time;durP1;ratioP1;P1;durP2;ratioP2;P2;SDS_P1;SDS_P2;PMS_P1;PMS_P2;Temp;Humidity;BMP_temperature;BMP_pressure;BME280_temperature;BME280_humidity;BME280_pressure;Samples;Min_cycle;Max_cycle;Signal;HPM_P1;HPM_P2
2023/01/29 00:02:04;;;;;;;17.80;7.80;;;;;;;-1.04;71.68;101119.97;130596;1266;108033;-76
2023/01/29 00:05:11;;;;;;;23.10;9.70;;;;;;;-1.02;71.64;101124.28;130681;1259;107492;-73
2023/01/29 00:08:16;;;;;;;35.90;11.40;;;;;;;-1.06;70.98;101124.77;130709;1265;107448;-72
2023/01/29 00:11:24;;;;;;;14.30;7.80;;;;;;;-1.02;71.99;101125.67;130675;1261;107939;-75
2023/01/29 00:14:29;;;;;;;10.80;6.10;;;;;;;-0.88;71.63;101123.91;130648;1260;107375;-75
2023/01/29 00:17:35;;;;;;;17.70;7.70;;;;;;;-0.87;70.99;101115.86;130664;1268;107544;-74
2023/01/29 00:20:44;;;;;;;15.80;7.60;;;;;;;-0.81;71.99;101101.66;130656;1275;107451;-76
2023/01/29 00:23:51;;;;;;;17.60;7.60;;;;;;;-0.65;72.08;101100.16;130674;1262;107463;-73
2023/01/29 00:26:56;;;;;;;23.30;9.60;;;;;;;-0.54;71.54;101098.48;130760;1263;107559;-72
2023/01/29 00:30:10;;;;;;;20.80;9.30;;;;;;;-0.60;71.20;101097.85;130720;1259;106611;-73
2023/01/29 00:33:16;;;;;;;16.10;7.70;;;;;;;-0.63;71.83;101089.23;130621;1259;107935;-75
2023/01/29 00:36:22;;;;;;;17.10;8.90;;;;;;;-0.54;72.18;101084.17;130799;1260;106060;-74
2023/01/29 00:39:37;;;;;;;14.20;7.50;;;;;;;-0.46;72.19;101081.21;130736;1263;107577;-74
2023/01/29 00:46:09;;;;;;;15.80;8.20;;;;;;;-0.47;71.96;101075.46;130763;1261;109414;-74
2023/01/29 00:49:14;;;;;;;14.20;7.60;;;;;;;-0.46;72.11;101066.52;130685;1260;108635;-74
2023/01/29 00:52:26;;;;;;;11.30;7.10;;;;;;;-0.42;72.14;101063.58;130756;1275;107603;-72
2023/01/29 00:55:31;;;;;;;12.20;7.40;;;;;;;-0.38;72.11;101063.61;130803;1272;107517;-72
2023/01/29 00:58:37;;;;;;;11.50;7.10;;;;;;;-0.37;72.10;101068.30;130766;1262;105772;-72
2023/01/29 01:05:12;;;;;;;14.80;7.70;;;;;;;-0.32;72.17;101058.30;130808;1260;107547;-74
2023/01/29 01:11:41;;;;;;;15.20;8.50;;;;;;;-0.31;72.03;101044.41;130489;1276;107475;-72
2023/01/29 01:14:47;;;;;;;15.90;8.20;;;;;;;-0.28;72.04;101037.11;130567;1265;107237;-73
2023/01/29 01:17:56;;;;;;;15.10;8.90;;;;;;;-0.25;72.04;101025.27;130550;1266;107523;-73
2023/01/29 01:21:01;;;;;;;13.60;8.10;;;;;;;-0.23;71.92;101022.25;130618;1261;108710;-73
2023/01/29 01:24:07;;;;;;;14.00;8.10;;;;;;;-0.22;71.87;101018.89;130637;1265;110149;-75
2023/01/29 01:27:14;;;;;;;12.20;7.30;;;;;;;-0.21;71.90;101007.62;130591;1279;107238;-74
2023/01/29 01:30:19;;;;;;;10.50;6.80;;;;;;;-0.18;71.85;101002.45;130751;1259;106880;-73
2023/01/29 01:33:25;;;;;;;10.10;6.60;;;;;;;-0.17;71.88;101008.50;130688;1260;107366;-73
2023/01/29 01:36:32;;;;;;;10.60;6.50;;;;;;;-0.17;71.81;101011.30;130729;1260;107925;-75
2023/01/29 01:39:37;;;;;;;8.80;5.70;;;;;;;-0.15;71.82;101010.54;130758;1265;109056;-74
2023/01/29 01:42:43;;;;;;;10.20;6.30;;;;;;;-0.15;71.70;101013.31;130615;1276;108585;-73
2023/01/29 01:45:50;;;;;;;10.90;6.20;;;;;;;-0.13;71.69;101018.15;130429;1265;107817;-76
2023/01/29 01:49:01;;;;;;;10.20;5.80;;;;;;;-0.17;71.21;101014.81;130571;1265;107241;-73
2023/01/29 01:52:10;;;;;;;9.40;5.90;;;;;;;-0.21;71.31;101017.61;130727;1260;108930;-74
2023/01/29 01:55:20;;;;;;;9.80;6.30;;;;;;;-0.24;71.22;101014.05;130665;1259;107550;-74
2023/01/29 01:58:32;;;;;;;9.80;5.80;;;;;;;-0.24;71.47;101012.83;130554;1260;107847;-75
2023/01/29 02:01:39;;;;;;;10.60;6.10;;;;;;;-0.23;71.54;101014.02;130534;1260;107440;-74
2023/01/29 02:11:40;;;;;;;9.20;5.80;;;;;;;-0.25;71.37;101012.67;130674;1265;107538;-73
2023/01/29 02:14:46;;;;;;;9.70;5.80;;;;;;;-0.24;71.36;101017.35;130563;1264;107568;-74
2023/01/29 02:17:51;;;;;;;8.90;5.70;;;;;;;-0.25;71.17;101019.33;130606;1265;107494;-75
2023/01/29 02:21:23;;;;;;;11.20;6.30;;;;;;;-0.25;71.22;101018.98;130613;1265;107674;-74
2023/01/29 02:24:59;;;;;;;9.10;5.80;;;;;;;-0.30;70.90;101021.80;130880;1259;107529;-73
2023/01/29 02:28:24;;;;;;;9.60;5.90;;;;;;;-0.32;71.08;101022.79;130660;1260;107599;-72
2023/01/29 02:31:40;;;;;;;9.70;5.60;;;;;;;-0.31;71.22;101028.52;130575;1260;107432;-74
2023/01/29 02:38:27;;;;;;;13.10;7.60;;;;;;;-0.27;71.10;101013.65;130639;1260;108820;-75
2023/01/29 02:41:38;;;;;;;10.30;6.50;;;;;;;-0.29;71.04;101013.05;130847;1260;107366;-73
2023/01/29 02:44:50;;;;;;;9.30;5.90;;;;;;;-0.30;71.18;101012.04;130774;1259;107488;-74
2023/01/29 02:48:00;;;;;;;9.60;5.80;;;;;;;-0.28;71.17;101007.73;130797;1270;107900;-76
2023/01/29 02:51:10;;;;;;;9.90;5.70;;;;;;;-0.27;70.85;100999.69;130874;1271;107531;-73
2023/01/29 02:54:24;;;;;;;8.90;5.50;;;;;;;-0.28;71.22;100992.21;130854;1269;107248;-75
2023/01/29 02:57:34;;;;;;;8.90;6.00;;;;;;;-0.26;71.18;100986.53;130933;1262;107648;-75
2023/01/29 03:00:44;;;;;;;8.50;5.50;;;;;;;-0.25;71.19;100980.34;130901;1262;107508;-73
2023/01/29 03:03:55;;;;;;;9.80;5.80;;;;;;;-0.23;71.07;100981.69;130796;1271;107784;-74
2023/01/29 03:07:05;;;;;;;10.00;5.80;;;;;;;-0.22;71.24;100987.59;130856;1256;107509;-73
2023/01/29 03:10:17;;;;;;;9.20;5.70;;;;;;;-0.24;71.08;100982.23;130988;1256;107401;-75
2023/01/29 03:13:30;;;;;;;5.80;4.00;;;;;;;-0.25;71.04;100976.13;130969;1262;107564;-71
2023/01/29 03:16:40;;;;;;;8.60;4.90;;;;;;;-0.25;71.04;100969.84;131014;1256;107509;-73
2023/01/29 03:19:49;;;;;;;7.60;5.10;;;;;;;-0.24;70.84;100967.19;131035;1262;107532;-75
2023/01/29 03:23:07;;;;;;;8.40;5.10;;;;;;;-0.24;70.92;100963.34;130944;1257;107824;-76
2023/01/29 03:33:26;;;;;;;7.40;4.80;;;;;;;-0.19;70.97;100972.23;130867;1262;107544;-75
2023/01/29 03:36:38;;;;;;;7.80;5.20;;;;;;;-0.17;71.01;100978.98;130971;1257;107879;-74
2023/01/29 03:39:44;;;;;;;9.90;5.90;;;;;;;-0.14;70.95;100972.00;131105;1259;107459;-72
2023/01/29 03:43:05;;;;;;;9.50;5.70;;;;;;;-0.13;70.99;100963.40;130873;1257;107425;-75
2023/01/29 03:46:17;;;;;;;8.00;5.20;;;;;;;-0.12;70.89;100960.73;130809;1256;107488;-74
2023/01/29 03:49:35;;;;;;;9.00;5.30;;;;;;;-0.12;71.00;100972.80;131101;1262;107563;-74
2023/01/29 03:52:48;;;;;;;9.30;5.30;;;;;;;-0.12;70.96;100971.07;131027;1260;107516;-73
2023/01/29 03:56:00;;;;;;;8.10;5.40;;;;;;;-0.13;70.94;100968.98;131021;1262;107530;-73
2023/01/29 03:59:13;;;;;;;8.70;5.60;;;;;;;-0.13;70.88;100966.05;131018;1257;107444;-73
2023/01/29 04:02:43;;;;;;;8.40;5.30;;;;;;;-0.14;70.94;100966.57;130806;1257;107467;-74
2023/01/29 04:05:57;;;;;;;9.40;5.60;;;;;;;-0.14;70.96;100967.11;131155;1262;108670;-73
2023/01/29 04:09:11;;;;;;;9.60;6.10;;;;;;;-0.16;70.65;100966.33;131003;1263;108245;-74
2023/01/29 04:12:24;;;;;;;9.70;5.50;;;;;;;-0.17;70.87;100959.36;130897;1257;107533;-74
2023/01/29 04:15:34;;;;;;;9.90;5.80;;;;;;;-0.16;70.89;100954.59;130978;1256;107678;-75
2023/01/29 04:18:41;;;;;;;12.80;7.10;;;;;;;-0.17;70.71;100948.73;130937;1262;107449;-74
2023/01/29 04:21:57;;;;;;;10.00;6.60;;;;;;;-0.21;70.78;100949.59;131132;1256;107989;-72
2023/01/29 04:25:07;;;;;;;9.60;6.00;;;;;;;-0.25;70.92;100950.27;131055;1260;107504;-72
2023/01/29 04:28:21;;;;;;;10.20;6.40;;;;;;;-0.24;70.97;100940.80;131136;1257;107509;-73
2023/01/29 04:31:32;;;;;;;12.10;6.80;;;;;;;-0.25;70.96;100937.52;131067;1261;107822;-74
2023/01/29 04:34:51;;;;;;;11.30;6.70;;;;;;;-0.24;70.94;100938.70;130873;1257;107614;-73
2023/01/29 04:38:08;;;;;;;11.20;6.90;;;;;;;-0.24;71.04;100938.19;130745;1256;107533;-73
2023/01/29 04:41:21;;;;;;;10.20;6.60;;;;;;;-0.25;71.05;100941.54;130924;1257;107515;-75
2023/01/29 04:44:34;;;;;;;11.50;7.30;;;;;;;-0.27;70.98;100928.69;131036;1259;107250;-73
2023/01/29 04:47:45;;;;;;;;;;;;;;;-0.29;70.97;100926.84;131050;1257;107647;-73
2023/01/29 04:50:59;;;;;;;11.60;7.50;;;;;;;-0.29;70.84;100929.49;131147;1256;106413;-73
2023/01/29 04:54:10;;;;;;;26.60;15.20;;;;;;;-0.34;70.96;100925.66;131063;1262;107485;-72
2023/01/29 04:57:24;;;;;;;16.30;9.00;;;;;;;-0.34;71.05;100918.16;130939;1262;107536;-74
2023/01/29 05:00:34;;;;;;;18.10;9.60;;;;;;;-0.31;71.03;100917.30;131016;1264;107910;-75
2023/01/29 05:03:44;;;;;;;14.20;8.20;;;;;;;-0.28;70.88;100915.79;131022;1256;106533;-74
2023/01/29 05:06:50;;;;;;;14.20;7.00;;;;;;;-0.19;70.99;100911.52;131023;1262;106251;-74
2023/01/29 05:09:56;;;;;;;14.40;7.90;;;;;;;-0.07;70.99;100905.05;131119;1266;107347;-75
2023/01/29 05:13:04;;;;;;;11.40;7.30;;;;;;;0.05;70.87;100906.11;131078;1259;107546;-72
2023/01/29 05:16:15;;;;;;;11.70;7.60;;;;;;;0.12;70.91;100911.02;131086;1256;107465;-72
2023/01/29 05:19:20;;;;;;;12.00;7.70;;;;;;;0.15;70.48;100911.09;131008;1257;107594;-74
2023/01/29 05:22:27;;;;;;;13.00;7.60;;;;;;;0.14;70.67;100919.86;131039;1260;107247;-74
2023/01/29 05:25:34;;;;;;;12.90;7.60;;;;;;;0.15;70.46;100919.66;130982;1262;109739;-74
2023/01/29 05:28:40;;;;;;;13.60;7.80;;;;;;;0.12;70.67;100913.15;131022;1262;106665;-72
2023/01/29 05:31:46;;;;;;;14.90;8.30;;;;;;;0.10;70.66;100913.56;131157;1262;107247;-73
2023/01/29 05:34:52;;;;;;;12.40;7.90;;;;;;;0.08;70.46;100908.77;131266;1270;107520;-72
2023/01/29 05:37:58;;;;;;;13.80;7.90;;;;;;;0.04;70.58;100908.79;131120;1272;107465;-72
2023/01/29 05:41:04;;;;;;;12.40;7.60;;;;;;;0.03;70.35;100909.89;131112;1257;107548;-72
2023/01/29 05:44:11;;;;;;;11.30;7.80;;;;;;;0.02;70.61;100906.23;130988;1269;106257;-73
2023/01/29 05:47:20;;;;;;;14.50;8.10;;;;;;;-0.01;70.40;100900.08;131121;1262;107620;-72
2023/01/29 05:50:27;;;;;;;13.20;8.00;;;;;;;-0.07;70.44;100901.39;131048;1257;107419;-74
2023/01/29 05:53:33;;;;;;;189.30;71.00;;;;;;;-0.10;70.42;100902.94;131128;1257;107548;-72
2023/01/29 05:56:39;;;;;;;190.60;67.90;;;;;;;-0.13;70.39;100900.64;130904;1260;107582;-74
2023/01/29 05:59:44;;;;;;;75.00;30.70;;;;;;;-0.15;70.45;100894.94;131008;1269;106344;-73
2023/01/29 06:03:00;;;;;;;70.00;30.20;;;;;;;-0.16;70.45;100893.23;130997;1262;106549;-74
2023/01/29 06:06:06;;;;;;;24.00;13.00;;;;;;;-0.20;70.40;100890.95;131030;1260;106494;-74
2023/01/29 06:09:13;;;;;;;45.70;28.30;;;;;;;-0.25;70.41;100887.50;131138;1260;107524;-74
2023/01/29 06:12:18;;;;;;;21.00;12.00;;;;;;;-0.26;70.48;100883.03;131093;1258;107665;-75
2023/01/29 06:15:25;;;;;;;18.30;11.10;;;;;;;-0.28;70.62;100886.10;131059;1258;107508;-73
2023/01/29 06:18:30;;;;;;;33.90;21.20;;;;;;;-0.31;70.64;100888.30;131280;1266;108075;-76
2023/01/29 06:21:36;;;;;;;18.10;12.00;;;;;;;-0.31;70.43;100886.75;130947;1262;107376;-74
2023/01/29 06:24:42;;;;;;;14.00;8.20;;;;;;;-0.33;70.50;100888.23;131130;1267;107417;-75
2023/01/29 06:27:50;;;;;;;140.00;43.10;;;;;;;-0.36;70.53;100892.73;131095;1256;107925;-74
2023/01/29 06:30:59;;;;;;;461.80;127.40;;;;;;;-0.39;70.59;100900.54;131072;1260;107404;-74
2023/01/29 06:34:04;;;;;;;280.30;73.40;;;;;;;-0.41;70.40;100901.14;131170;1261;108191;-74
2023/01/29 06:37:10;;;;;;;58.20;23.60;;;;;;;-0.42;70.54;100898.20;131108;1260;106575;-75
2023/01/29 06:40:16;;;;;;;29.50;14.20;;;;;;;-0.43;70.43;100896.31;131090;1258;105767;-75
2023/01/29 06:43:22;;;;;;;32.20;16.00;;;;;;;-0.42;70.49;100897.85;131273;1261;107140;-76
2023/01/29 06:46:28;;;;;;;22.90;12.60;;;;;;;-0.42;70.36;100899.80;131078;1257;107545;-74
2023/01/29 06:49:33;;;;;;;25.00;11.20;;;;;;;-0.39;70.59;100906.48;131122;1262;106640;-74
2023/01/29 06:52:39;;;;;;;17.60;11.70;;;;;;;-0.35;70.55;100910.19;131334;1260;105996;-74
2023/01/29 06:55:50;;;;;;;50.00;24.50;;;;;;;-0.33;70.55;100907.44;131074;1261;107522;-72
2023/01/29 06:58:56;;;;;;;20.50;12.70;;;;;;;-0.27;70.43;100907.71;130950;1261;107605;-72
2023/01/29 07:02:02;;;;;;;18.50;10.00;;;;;;;-0.24;70.47;100903.05;130959;1262;106149;-75
2023/01/29 07:05:09;;;;;;;16.20;8.90;;;;;;;-0.22;70.45;100903.31;130955;1260;107442;-74
2023/01/29 07:08:21;;;;;;;16.40;10.70;;;;;;;-0.23;70.12;100911.92;131020;1262;109269;-76
2023/01/29 07:11:28;;;;;;;48.60;24.20;;;;;;;-0.24;70.05;100910.54;130859;1263;107334;-74
2023/01/29 07:14:33;;;;;;;28.00;17.60;;;;;;;-0.21;70.50;100900.79;131150;1266;109392;-74
2023/01/29 07:17:39;;;;;;;17.10;11.00;;;;;;;-0.15;70.43;100887.09;131261;1258;108585;-74
2023/01/29 07:20:44;;;;;;;15.60;9.80;;;;;;;-0.10;70.32;100888.41;131204;1257;107389;-73
2023/01/29 07:23:50;;;;;;;16.10;9.50;;;;;;;-0.08;70.15;100893.91;131146;1260;107539;-74
2023/01/29 07:26:56;;;;;;;17.90;12.00;;;;;;;-0.08;69.95;100903.17;131113;1260;107517;-75
2023/01/29 07:30:01;;;;;;;85.10;26.60;;;;;;;-0.07;70.02;100911.35;131179;1269;107525;-74
2023/01/29 07:33:08;;;;;;;47.10;19.70;;;;;;;-0.05;70.03;100909.35;131118;1261;106877;-74
2023/01/29 07:36:15;;;;;;;201.60;64.60;;;;;;;-0.00;70.32;100905.31;131108;1264;107368;-75
2023/01/29 07:39:20;;;;;;;174.80;50.00;;;;;;;0.06;70.27;100904.12;131048;1263;107552;-75
2023/01/29 07:42:26;;;;;;;84.40;28.90;;;;;;;0.09;70.22;100900.66;131188;1256;108180;-73
2023/01/29 07:45:33;;;;;;;28.90;14.40;;;;;;;0.14;70.03;100891.50;131175;1260;107511;-75
2023/01/29 07:48:41;;;;;;;22.00;11.80;;;;;;;0.17;69.93;100895.77;131410;1260;107525;-76
2023/01/29 07:51:49;;;;;;;19.50;11.20;;;;;;;0.21;70.17;100897.33;131209;1261;107437;-76
2023/01/29 07:54:54;;;;;;;357.50;179.50;;;;;;;0.26;69.99;100896.91;131217;1256;108892;-73
2023/01/29 07:58:04;;;;;;;133.10;68.50;;;;;;;0.30;70.22;100890.41;131034;1262;107181;-76
2023/01/29 08:01:13;;;;;;;38.90;19.60;;;;;;;0.33;70.11;100886.77;131324;1256;106599;-74
2023/01/29 08:04:20;;;;;;;24.30;12.90;;;;;;;0.40;70.13;100885.42;131143;1257;109225;-75
2023/01/29 08:07:26;;;;;;;16.80;10.50;;;;;;;0.46;70.15;100885.82;131200;1260;107396;-75
2023/01/29 08:10:32;;;;;;;20.60;13.20;;;;;;;0.53;69.96;100890.41;131109;1260;107249;-74
2023/01/29 08:13:38;;;;;;;24.20;12.50;;;;;;;0.57;69.94;100891.44;131272;1260;107475;-74
2023/01/29 08:16:43;;;;;;;79.60;45.50;;;;;;;0.63;70.13;100885.20;131569;1256;107957;-76
2023/01/29 08:19:49;;;;;;;92.40;42.30;;;;;;;0.67;70.03;100878.34;131254;1262;108514;-75
2023/01/29 08:23:01;;;;;;;131.50;61.00;;;;;;;0.73;69.93;100880.88;131295;1260;107541;-74
2023/01/29 08:26:07;;;;;;;25.90;14.80;;;;;;;0.76;69.70;100873.71;131552;1260;107263;-70
2023/01/29 08:29:15;;;;;;;23.80;12.00;;;;;;;0.82;69.87;100870.44;131366;1260;107558;-71
2023/01/29 08:32:30;;;;;;;35.30;19.80;;;;;;;0.84;69.47;100866.84;131164;1260;107446;-71
2023/01/29 08:35:40;;;;;;;28.20;17.30;;;;;;;0.89;69.71;100863.81;131113;1261;108038;-73
2023/01/29 08:38:45;;;;;;;18.50;10.90;;;;;;;0.95;69.79;100853.83;131042;1260;107646;-70
2023/01/29 08:41:57;;;;;;;14.90;9.50;;;;;;;0.98;69.74;100850.02;131088;1260;107627;-72
2023/01/29 08:45:12;;;;;;;48.30;25.60;;;;;;;1.03;69.58;100858.56;131493;1257;108366;-74
2023/01/29 08:48:19;;;;;;;34.70;21.70;;;;;;;1.07;69.75;100862.72;131105;1257;107847;-77
2023/01/29 08:51:36;;;;;;;63.60;29.70;;;;;;;1.18;69.50;100861.98;131051;1257;107546;-79
2023/01/29 08:54:44;;;;;;;25.50;14.20;;;;;;;1.27;69.47;100857.87;130875;1257;223502;-77
2023/01/29 08:57:51;;;;;;;19.10;12.20;;;;;;;1.37;69.31;100852.77;131202;1260;107559;-78
2023/01/29 09:01:04;;;;;;;29.60;19.70;;;;;;;1.42;69.54;100848.84;131021;1260;106334;-78
2023/01/29 09:04:10;;;;;;;15.60;10.10;;;;;;;1.55;69.75;100842.92;131131;1261;107429;-76
2023/01/29 09:07:15;;;;;;;14.40;8.20;;;;;;;1.62;69.50;100829.40;131281;1262;107601;-76
2023/01/29 09:10:21;;;;;;;22.60;14.60;;;;;;;1.70;69.66;100827.05;131206;1257;107451;-79
2023/01/29 09:13:27;;;;;;;35.20;20.10;;;;;;;1.77;69.49;100819.64;131300;1258;105440;-78
2023/01/29 09:16:32;;;;;;;43.90;24.60;;;;;;;1.81;69.51;100826.27;131175;1260;107733;-76
2023/01/29 09:19:38;;;;;;;29.30;18.50;;;;;;;1.84;69.24;100826.83;131462;1263;107531;-77
2023/01/29 09:22:44;;;;;;;65.20;40.20;;;;;;;1.90;69.58;100824.56;131421;1260;109786;-81
2023/01/29 09:25:50;;;;;;;19.70;11.10;;;;;;;1.97;69.47;100818.41;131957;1257;107537;-80
2023/01/29 09:28:56;;;;;;;22.30;13.30;;;;;;;2.03;69.28;100813.69;131016;1257;108621;-79
2023/01/29 09:32:02;;;;;;;30.70;20.70;;;;;;;2.06;68.77;100815.59;131334;1260;107233;-75
2023/01/29 09:35:09;;;;;;;17.20;11.60;;;;;;;2.04;69.34;100811.52;131057;1258;107577;-74
2023/01/29 09:38:14;;;;;;;16.30;10.10;;;;;;;2.08;69.12;100810.58;130919;1258;107398;-74
2023/01/29 09:41:33;;;;;;;42.50;20.40;;;;;;;2.08;69.42;100805.48;130990;1258;107422;-77
2023/01/29 09:44:54;;;;;;;14.20;9.30;;;;;;;2.10;69.33;100796.59;131085;1261;107523;-74
2023/01/29 09:48:02;;;;;;;32.30;19.40;;;;;;;2.06;69.33;100792.42;131042;1257;107453;-73
2023/01/29 09:51:15;;;;;;;28.20;15.40;;;;;;;2.03;69.66;100789.80;131062;1260;110467;-73
2023/01/29 09:54:26;;;;;;;26.50;15.80;;;;;;;2.05;69.39;100789.02;131180;1260;107393;-74
2023/01/29 09:57:41;;;;;;;19.40;11.10;;;;;;;2.04;69.95;100788.86;131257;1264;106257;-74
2023/01/29 10:00:54;;;;;;;26.20;14.00;;;;;;;2.09;69.80;100792.98;131118;1267;107848;-75
2023/01/29 10:04:19;;;;;;;19.00;10.60;;;;;;;2.08;69.63;100792.89;131377;1264;106422;-74
2023/01/29 10:07:44;;;;;;;23.30;11.90;;;;;;;2.00;69.90;100783.30;131327;1256;107945;-76
2023/01/29 10:10:57;;;;;;;33.00;14.50;;;;;;;2.02;70.02;100780.56;131164;1261;107514;-74
2023/01/29 10:14:14;;;;;;;100.00;32.20;;;;;;;2.07;70.12;100778.69;131288;1261;107477;-74
2023/01/29 10:17:40;;;;;;;88.40;29.20;;;;;;;2.09;70.50;100772.63;131094;1258;107521;-75
2023/01/29 10:20:55;;;;;;;155.80;40.40;;;;;;;2.13;70.52;100764.82;131160;1257;107306;-73
2023/01/29 10:24:15;;;;;;;46.50;28.50;;;;;;;2.14;70.45;100759.91;131391;1261;107359;-73
2023/01/29 10:27:21;;;;;;;16.00;8.90;;;;;;;2.15;70.53;100758.56;131280;1260;109289;-72
2023/01/29 10:30:34;;;;;;;16.00;9.70;;;;;;;2.20;70.79;100757.11;131342;1258;108788;-72
2023/01/29 10:33:42;;;;;;;18.00;9.50;;;;;;;2.21;71.02;100760.02;131194;1258;107777;-74
2023/01/29 10:36:49;;;;;;;55.20;32.10;;;;;;;2.28;70.90;100762.91;131188;1257;107538;-73
2023/01/29 10:40:00;;;;;;;88.20;39.00;;;;;;;2.37;70.97;100756.44;131470;1257;107508;-74
2023/01/29 10:43:13;;;;;;;29.40;16.20;;;;;;;2.34;70.85;100754.48;131258;1258;108897;-75
2023/01/29 10:46:23;;;;;;;;;;;;;;;2.29;71.14;100754.29;131214;1258;107344;-73
2023/01/29 10:49:47;;;;;;;312.40;85.30;;;;;;;2.33;71.34;100756.31;131032;1257;107531;-74
2023/01/29 10:53:07;;;;;;;134.90;42.90;;;;;;;2.37;71.39;100752.25;131200;1261;107251;-73
2023/01/29 10:56:35;;;;;;;128.40;46.30;;;;;;;2.34;71.57;100743.59;131384;1259;107690;-73
2023/01/29 11:00:06;;;;;;;112.70;47.40;;;;;;;2.32;71.72;100740.25;131307;1258;108500;-76
2023/01/29 11:03:22;;;;;;;25.40;14.70;;;;;;;2.29;71.85;100737.98;131385;1257;107343;-73
2023/01/29 11:06:31;;;;;;;20.00;12.10;;;;;;;2.29;72.15;100735.31;131183;1256;107499;-75
2023/01/29 11:09:43;;;;;;;72.90;36.40;;;;;;;2.30;72.32;100732.30;131489;1260;107462;-74
2023/01/29 11:12:52;;;;;;;56.90;25.50;;;;;;;2.35;72.51;100731.64;131370;1257;107895;-75
2023/01/29 11:15:57;;;;;;;42.70;27.80;;;;;;;2.45;72.44;100732.87;131257;1257;108508;-76
2023/01/29 11:19:04;;;;;;;38.90;27.30;;;;;;;2.47;72.55;100724.85;131032;1261;107523;-72
2023/01/29 11:22:15;;;;;;;20.00;12.00;;;;;;;2.47;72.76;100714.30;130941;1260;107557;-75
2023/01/29 11:25:22;;;;;;;34.30;18.90;;;;;;;2.53;72.69;100707.27;131409;1257;107596;-74
2023/01/29 11:28:48;;;;;;;154.40;62.60;;;;;;;2.61;72.83;100706.94;131396;1257;107616;-73
2023/01/29 11:31:54;;;;;;;63.20;27.60;;;;;;;2.72;72.63;100699.28;130951;1261;107599;-73
2023/01/29 11:35:03;;;;;;;212.00;81.20;;;;;;;2.80;72.67;100693.58;131053;1257;107532;-73
2023/01/29 11:38:18;;;;;;;58.10;36.30;;;;;;;2.83;72.54;100688.96;131048;1257;108774;-75
2023/01/29 11:41:24;;;;;;;24.00;13.10;;;;;;;2.79;72.58;100680.98;131263;1257;108101;-72
2023/01/29 11:44:32;;;;;;;30.80;18.40;;;;;;;2.75;72.63;100672.04;132185;1258;107527;-74
2023/01/29 11:47:38;;;;;;;30.00;18.10;;;;;;;2.74;72.68;100661.52;132837;1256;108639;-73
2023/01/29 11:50:50;;;;;;;105.90;33.80;;;;;;;2.74;72.70;100655.77;131197;1256;108525;-74
2023/01/29 11:53:59;;;;;;;87.40;31.50;;;;;;;2.58;72.58;100654.47;131123;1256;109281;-74
2023/01/29 11:57:14;;;;;;;158.50;48.90;;;;;;;2.42;72.65;100655.38;131201;1256;107429;-70
2023/01/29 12:00:22;;;;;;;148.70;44.20;;;;;;;2.29;72.70;100649.33;131143;1259;108486;-74
2023/01/29 12:03:36;;;;;;;164.30;46.90;;;;;;;2.19;72.98;100644.48;130947;1260;107741;-76
2023/01/29 12:06:50;;;;;;;32.90;16.80;;;;;;;2.19;73.11;100639.04;131002;1260;106495;-73
2023/01/29 12:09:58;;;;;;;84.80;42.30;;;;;;;2.20;73.12;100621.05;131048;1257;107395;-74
2023/01/29 12:13:21;;;;;;;33.80;18.30;;;;;;;2.25;73.01;100617.96;131093;1261;108976;-76
2023/01/29 12:16:33;;;;;;;32.10;19.00;;;;;;;2.37;73.24;100613.73;131118;1267;107252;-74
2023/01/29 12:19:44;;;;;;;28.00;16.00;;;;;;;2.40;72.85;100614.11;131018;1257;107385;-73
2023/01/29 12:22:56;;;;;;;29.20;18.90;;;;;;;2.42;73.20;100607.64;131036;1256;107499;-74
2023/01/29 12:26:02;;;;;;;;;;;;;;;2.44;73.12;100604.37;131100;1256;107546;-74
2023/01/29 12:29:21;;;;;;;75.80;35.20;;;;;;;2.45;73.08;100601.16;131066;1256;107373;-74
2023/01/29 12:32:35;;;;;;;28.40;16.40;;;;;;;2.40;73.13;100595.99;131059;1257;107412;-73
2023/01/29 12:35:47;;;;;;;30.30;15.70;;;;;;;2.37;73.10;100594.91;130994;1260;107386;-74
2023/01/29 12:38:54;;;;;;;24.00;13.70;;;;;;;2.37;73.12;100586.16;130928;1267;107589;-75
2023/01/29 12:42:04;;;;;;;38.80;21.20;;;;;;;2.32;72.96;100585.73;131513;1256;107585;-77
2023/01/29 12:45:19;;;;;;;26.60;15.40;;;;;;;2.26;73.13;100573.34;130933;1257;106966;-74
2023/01/29 12:48:30;;;;;;;47.90;24.80;;;;;;;2.17;73.00;100575.98;131070;1260;107551;-73
2023/01/29 12:51:42;;;;;;;36.80;21.70;;;;;;;2.08;73.17;100576.33;131169;1258;107564;-76
2023/01/29 12:54:53;;;;;;;35.30;21.70;;;;;;;1.99;73.12;100573.35;131149;1256;107513;-75
2023/01/29 12:58:01;;;;;;;22.80;14.80;;;;;;;1.93;73.36;100578.24;131135;1256;106721;-73
2023/01/29 13:01:15;;;;;;;45.30;22.70;;;;;;;1.83;73.27;100572.31;131027;1256;107570;-73
2023/01/29 13:04:31;;;;;;;181.80;87.70;;;;;;;1.74;73.66;100564.25;131240;1257;108923;-75
2023/01/29 13:07:46;;;;;;;246.30;95.10;;;;;;;1.78;73.73;100567.16;131095;1260;107564;-74
2023/01/29 13:10:54;;;;;;;466.20;164.20;;;;;;;1.83;73.72;100567.05;131020;1264;107304;-73
2023/01/29 13:14:03;;;;;;;199.00;73.70;;;;;;;1.87;73.78;100568.92;131226;1267;107928;-76
2023/01/29 13:17:14;;;;;;;110.80;36.50;;;;;;;1.85;73.74;100577.80;131171;1260;107593;-75
2023/01/29 13:20:26;;;;;;;60.00;25.00;;;;;;;1.78;73.63;100563.86;131207;1257;107433;-75
2023/01/29 13:23:38;;;;;;;31.40;16.90;;;;;;;1.76;73.71;100561.17;131010;1256;109683;-74
2023/01/29 13:26:46;;;;;;;34.30;17.20;;;;;;;1.74;73.65;100562.84;131284;1261;107279;-74
2023/01/29 13:29:52;;;;;;;36.50;17.70;;;;;;;1.71;73.82;100561.13;131430;1259;107425;-74
2023/01/29 13:33:10;;;;;;;39.30;20.10;;;;;;;1.66;73.88;100561.04;131363;1257;107476;-74
2023/01/29 13:36:25;;;;;;;41.20;19.10;;;;;;;1.64;74.10;100567.48;131092;1257;108125;-74
2023/01/29 13:39:33;;;;;;;35.70;16.50;;;;;;;1.58;74.13;100571.98;131014;1257;107280;-75
2023/01/29 13:42:44;;;;;;;35.20;16.50;;;;;;;1.57;74.30;100573.11;130952;1256;107369;-74
2023/01/29 13:45:52;;;;;;;60.30;24.70;;;;;;;1.53;74.42;100573.14;131120;1264;107416;-74
2023/01/29 13:49:03;;;;;;;53.90;20.70;;;;;;;1.60;74.67;100567.35;131089;1256;107550;-74
2023/01/29 13:52:35;;;;;;;79.00;29.60;;;;;;;1.63;74.49;100559.61;131152;1256;107265;-73
2023/01/29 13:55:42;;;;;;;51.70;21.30;;;;;;;1.71;74.59;100560.36;130993;1256;108021;-75
2023/01/29 13:58:58;;;;;;;32.30;16.80;;;;;;;1.73;74.75;100560.27;131068;1261;107549;-74
2023/01/29 14:02:20;;;;;;;45.70;21.30;;;;;;;1.65;74.88;100556.36;131027;1261;107243;-76
2023/01/29 14:05:42;;;;;;;44.10;20.10;;;;;;;1.61;75.27;100551.48;130937;1261;107374;-74
2023/01/29 14:08:46;;;;;;;;;;;;;;;1.56;75.14;100553.75;130978;1258;107546;-76
2023/01/29 14:11:54;;;;;;;40.10;17.90;;;;;;;1.50;75.67;100558.63;131026;1260;107063;-75
2023/01/29 14:15:15;;;;;;;180.60;64.50;;;;;;;1.43;75.86;100556.91;130954;1258;107542;-73
2023/01/29 14:18:23;;;;;;;279.70;103.70;;;;;;;1.37;75.88;100570.77;130991;1261;106753;-74
2023/01/29 14:21:32;;;;;;;395.20;212.30;;;;;;;1.34;75.90;100570.88;130993;1263;108976;-74
2023/01/29 14:24:42;;;;;;;189.50;88.80;;;;;;;1.41;76.11;100564.56;130916;1256;107523;-74
2023/01/29 14:27:49;;;;;;;99.10;54.00;;;;;;;1.45;76.15;100566.29;131020;1260;107764;-76
2023/01/29 14:30:56;;;;;;;46.70;26.40;;;;;;;1.49;76.19;100568.31;131097;1261;107514;-73
2023/01/29 14:34:07;;;;;;;32.20;18.40;;;;;;;1.49;76.43;100566.04;131157;1264;107425;-72
2023/01/29 14:37:23;;;;;;;322.80;71.20;;;;;;;1.46;76.35;100544.29;131056;1256;107413;-73
2023/01/29 14:40:34;;;;;;;302.10;72.80;;;;;;;1.50;76.32;100528.63;131062;1260;107583;-74
2023/01/29 14:43:40;;;;;;;217.90;66.50;;;;;;;1.47;76.40;100528.98;131046;1260;107615;-73